createdAt,value
2022-10-29T00:03:20.719Z,5.93
2022-10-29T00:08:23.544Z,5.88
2022-10-29T00:13:26.498Z,5.18
2022-10-29T00:18:30.519Z,5.78
2022-10-29T00:23:33.535Z,4.35
2022-10-29T00:28:36.857Z,4.78
2022-10-29T00:33:39.448Z,4.25
2022-10-29T00:38:42.692Z,4.18
2022-10-29T00:43:51.441Z,3.70
2022-10-29T00:48:56.136Z,3.17
2022-10-29T00:54:04.979Z,3.10
2022-10-29T00:59:09.197Z,3.25
2022-10-29T01:04:12.403Z,3.63
2022-10-29T01:09:15.040Z,3.00
2022-10-29T01:14:31.032Z,3.50
2022-10-29T01:20:04.342Z,3.47
2022-10-29T01:25:27.159Z,3.22
2022-10-29T01:30:54.537Z,3.17
2022-10-29T01:35:59.624Z,3.35
2022-10-29T01:41:17.276Z,3.60
2022-10-29T01:46:25.558Z,3.10
2022-10-29T01:51:33.183Z,3.78
2022-10-29T01:56:35.804Z,3.45
2022-10-29T02:01:56.485Z,4.10
2022-10-29T02:07:28.523Z,4.35
2022-10-29T02:12:40.587Z,5.43
2022-10-29T02:18:07.077Z,5.40
2022-10-29T02:23:09.867Z,5.55
2022-10-29T02:28:13.260Z,4.97
2022-10-29T02:33:15.868Z,5.65
2022-10-29T02:38:18.468Z,4.88
2022-10-29T02:43:21.058Z,5.50
2022-10-29T02:48:23.642Z,6.03
2022-10-29T02:53:26.179Z,4.80
2022-10-29T02:58:28.880Z,5.15
2022-10-29T03:03:31.497Z,5.60
2022-10-29T03:08:34.031Z,5.45
2022-10-29T03:18:44.095Z,5.38
2022-10-29T03:23:47.259Z,5.45
2022-10-29T03:28:49.888Z,4.93
2022-10-29T03:33:52.550Z,4.90
2022-10-29T03:38:55.180Z,5.50
2022-10-29T03:43:57.873Z,4.68
2022-10-29T03:49:00.556Z,4.45
2022-10-29T03:54:03.151Z,4.05
2022-10-29T03:59:05.872Z,4.63
2022-10-29T04:04:10.028Z,4.22
2022-10-29T04:09:12.583Z,3.70
2022-10-29T04:14:15.169Z,3.67
2022-10-29T04:19:17.879Z,3.78
2022-10-29T04:29:43.357Z,3.72
2022-10-29T04:34:45.961Z,4.32
2022-10-29T04:39:48.559Z,4.82
2022-10-29T04:44:51.134Z,4.50
2022-10-29T04:49:53.811Z,4.43
2022-10-29T04:54:56.405Z,4.65
2022-10-29T04:59:58.978Z,4.55
2022-10-29T05:05:01.763Z,4.53
2022-10-29T05:10:06.102Z,4.68
2022-10-29T05:15:08.908Z,4.75
2022-10-29T05:20:11.771Z,4.35
2022-10-29T05:25:15.104Z,4.47
2022-10-29T05:30:17.851Z,5.07
2022-10-29T05:35:20.459Z,4.28
2022-10-29T05:40:24.264Z,3.90
2022-10-29T05:45:26.887Z,4.20
2022-10-29T05:50:30.485Z,4.53
2022-10-29T05:55:34.765Z,4.68
2022-10-29T06:00:39.900Z,4.78
2022-10-29T06:05:42.734Z,4.68
2022-10-29T06:10:45.717Z,4.85
2022-10-29T06:15:51.287Z,4.72
2022-10-29T06:20:55.078Z,3.80
2022-10-29T06:26:02.066Z,3.50
2022-10-29T06:31:05.002Z,4.15
2022-10-29T06:36:08.218Z,4.60
2022-10-29T06:41:10.947Z,3.80
2022-10-29T06:46:13.602Z,4.03
2022-10-29T06:51:16.753Z,4.32
2022-10-29T06:56:19.896Z,4.53
2022-10-29T07:01:24.590Z,4.47
2022-10-29T07:06:33.671Z,4.43
2022-10-29T07:11:36.337Z,4.82
2022-10-29T07:16:38.884Z,4.53
2022-10-29T07:21:42.037Z,5.57
2022-10-29T07:26:44.786Z,6.05
2022-10-29T07:31:47.475Z,5.90
2022-10-29T07:36:50.345Z,6.43
2022-10-29T07:41:55.317Z,6.60
2022-10-29T07:47:03.186Z,6.30
2022-10-29T07:52:05.832Z,6.63
2022-10-29T07:57:08.769Z,6.35
2022-10-29T08:02:11.883Z,6.32
2022-10-29T08:07:14.538Z,5.97
2022-10-29T08:12:17.294Z,5.82
2022-10-29T08:17:19.908Z,5.82
2022-10-29T08:22:22.832Z,6.07
2022-10-29T08:27:25.803Z,5.43
2022-10-29T08:32:28.588Z,5.43
2022-10-29T08:37:31.784Z,5.55
2022-10-29T08:42:40.591Z,4.25
2022-10-29T08:48:06.293Z,4.22
2022-10-29T08:53:23.692Z,4.53
2022-10-29T08:58:33.492Z,4.45
2022-10-29T09:03:36.155Z,5.20
2022-10-29T09:08:45.097Z,4.97
2022-10-29T09:14:00.617Z,5.75
2022-10-29T09:19:08.341Z,5.45
2022-10-29T09:24:35.294Z,5.97
2022-10-29T09:29:58.327Z,6.85
2022-10-29T09:35:06.060Z,6.35
2022-10-29T09:40:33.019Z,7.13
2022-10-29T09:45:50.937Z,7.38
2022-10-29T09:51:22.624Z,8.30
2022-10-29T09:56:25.541Z,8.93
2022-10-29T10:01:28.837Z,9.40
2022-10-29T10:07:11.098Z,8.45
2022-10-29T10:12:13.742Z,9.30
2022-10-29T10:17:16.675Z,9.80
2022-10-29T10:22:22.654Z,10.02
2022-10-29T10:27:34.396Z,10.10
2022-10-29T10:32:37.115Z,10.65
2022-10-29T10:37:39.803Z,10.63
2022-10-29T10:42:47.196Z,9.48
2022-10-29T10:47:56.477Z,9.68
2022-10-29T10:53:03.089Z,10.20
2022-10-29T10:58:10.066Z,10.20
2022-10-29T11:03:18.134Z,10.98
2022-10-29T11:08:45.614Z,10.77
2022-10-29T11:13:50.333Z,10.75
2022-10-29T11:19:05.802Z,11.20
2022-10-29T11:24:27.847Z,11.07
2022-10-29T11:35:46.959Z,10.65
2022-10-29T11:40:54.977Z,9.52
2022-10-29T11:46:21.602Z,10.32
2022-10-29T11:51:41.311Z,10.05
2022-10-29T11:56:43.882Z,11.57
2022-10-29T12:01:58.466Z,10.68
2022-10-29T12:07:31.884Z,10.98
2022-10-29T12:12:56.397Z,9.57
2022-10-29T12:18:37.039Z,9.07
2022-10-29T12:24:01.754Z,10.18
2022-10-29T12:29:32.582Z,9.15
2022-10-29T12:34:38.110Z,10.18
2022-10-29T12:39:55.818Z,9.65
2022-10-29T12:45:06.823Z,10.10
2022-10-29T12:50:26.650Z,9.07
2022-10-29T12:55:30.860Z,9.13
2022-10-29T13:00:45.897Z,8.93
2022-10-29T13:05:48.571Z,9.40
2022-10-29T13:10:53.223Z,9.23
2022-10-29T13:16:02.700Z,8.77
2022-10-29T13:21:05.776Z,8.40
2022-10-29T13:26:09.014Z,8.10
2022-10-29T13:31:14.352Z,8.50
2022-10-29T13:36:16.890Z,7.88
2022-10-29T13:41:42.331Z,7.85
2022-10-29T13:46:56.705Z,7.95
2022-10-29T13:52:14.568Z,7.82
2022-10-29T13:57:25.350Z,7.53
2022-10-29T14:02:37.293Z,6.30
2022-10-29T14:12:58.007Z,8.25
2022-10-29T14:18:23.248Z,7.50
2022-10-29T14:23:26.899Z,7.25
2022-10-29T14:28:31.643Z,7.45
2022-10-29T14:33:36.796Z,6.35
2022-10-29T14:38:47.702Z,6.70
2022-10-29T14:43:58.725Z,6.57
2022-10-29T14:49:04.378Z,6.38
2022-10-29T14:54:15.615Z,6.68
2022-10-29T14:59:24.931Z,6.03
2022-10-29T15:04:32.610Z,5.55
2022-10-29T15:09:35.225Z,5.20
2022-10-29T15:14:47.475Z,5.32
2022-10-29T15:20:03.324Z,4.93
2022-10-29T15:25:19.305Z,5.40
2022-10-29T15:30:29.173Z,4.72
2022-10-29T15:35:32.067Z,4.57
2022-10-29T15:40:34.618Z,4.25
2022-10-29T15:45:37.153Z,4.25
2022-10-29T15:50:44.927Z,3.58
2022-10-29T15:55:53.000Z,4.50
2022-10-29T16:00:55.743Z,4.70
2022-10-29T16:06:03.990Z,4.65
2022-10-29T16:11:11.203Z,4.70
2022-10-29T16:16:22.520Z,5.20
2022-10-29T16:21:26.360Z,5.20
2022-10-29T16:26:29.423Z,4.63
2022-10-29T16:31:32.091Z,4.95
2022-10-29T16:36:34.801Z,4.68
2022-10-29T16:41:37.409Z,5.22
2022-10-29T16:46:40.027Z,4.82
2022-10-29T16:51:42.907Z,5.63
2022-10-29T16:56:46.539Z,5.35
2022-10-29T17:01:49.204Z,5.05
2022-10-29T17:06:51.822Z,5.53
2022-10-29T17:11:54.383Z,5.70
2022-10-29T17:16:57.407Z,6.00
2022-10-29T17:22:00.217Z,5.55
2022-10-29T17:27:02.927Z,6.25
2022-10-29T17:32:07.568Z,6.38
2022-10-29T17:37:11.423Z,6.47
2022-10-29T17:42:14.097Z,6.22
2022-10-29T17:47:16.656Z,6.43
2022-10-29T17:52:19.680Z,6.55
2022-10-29T17:57:22.276Z,6.72
2022-10-29T18:02:25.032Z,7.05
2022-10-29T18:07:27.798Z,6.53
2022-10-29T18:12:30.541Z,6.78
2022-10-29T18:17:33.551Z,7.00
2022-10-29T18:22:36.656Z,6.95
2022-10-29T18:27:40.835Z,7.47
2022-10-29T18:32:43.458Z,7.00
2022-10-29T18:37:47.068Z,7.85
2022-10-29T18:42:49.811Z,6.90
2022-10-29T18:47:52.397Z,7.30
2022-10-29T18:52:55.380Z,7.13
2022-10-29T18:57:58.210Z,6.93
2022-10-29T19:03:00.914Z,7.63
2022-10-29T19:08:05.784Z,7.65
2022-10-29T19:13:08.906Z,7.70
2022-10-29T19:18:12.115Z,6.90
2022-10-29T19:23:14.843Z,7.32
2022-10-29T19:28:17.423Z,6.88
2022-10-29T19:33:20.032Z,6.55
2022-10-29T19:38:22.742Z,7.60
2022-10-29T19:43:28.675Z,6.25
2022-10-29T19:48:31.212Z,6.13
2022-10-29T19:53:33.990Z,5.47
2022-10-29T19:58:36.566Z,4.93
2022-10-29T20:03:39.202Z,5.22
2022-10-29T20:08:42.186Z,4.75
2022-10-29T20:13:45.433Z,5.00
2022-10-29T20:18:48.995Z,4.90
2022-10-29T20:23:51.973Z,4.53
2022-10-29T20:28:57.147Z,3.67
2022-10-29T20:34:01.185Z,3.83
2022-10-29T20:39:04.266Z,3.67
2022-10-29T20:44:06.872Z,4.13
2022-10-29T20:49:10.934Z,3.17
2022-10-29T20:54:13.593Z,3.15
2022-10-29T20:59:16.800Z,3.03
2022-10-29T21:04:19.641Z,3.92
2022-10-29T21:09:22.920Z,3.60
2022-10-29T21:14:27.623Z,2.85
2022-10-29T21:19:30.755Z,3.20
2022-10-29T21:24:33.447Z,2.50
2022-10-29T21:29:36.237Z,2.90
2022-10-29T21:34:38.859Z,2.85
2022-10-29T21:39:41.612Z,2.28
2022-10-29T21:44:44.309Z,2.20
2022-10-29T21:49:51.833Z,1.98
2022-10-29T21:54:54.809Z,2.33
2022-10-29T21:59:57.551Z,1.98
2022-10-29T22:05:00.191Z,2.05
2022-10-29T22:10:03.124Z,2.03
2022-10-29T22:15:06.519Z,2.13
2022-10-29T22:20:09.770Z,2.17
2022-10-29T22:25:12.351Z,2.20
2022-10-29T22:30:15.063Z,1.88
2022-10-29T22:35:17.636Z,1.95
2022-10-29T22:40:20.225Z,2.45
2022-10-29T22:45:22.762Z,2.33
2022-10-29T22:50:25.427Z,2.63
2022-10-29T22:55:27.947Z,2.67
2022-10-29T23:00:30.656Z,2.35
2022-10-29T23:05:33.217Z,2.42
2022-10-29T23:10:36.152Z,2.45
2022-10-29T23:15:38.727Z,2.38
2022-10-29T23:20:41.540Z,2.28
2022-10-29T23:25:44.721Z,2.95
2022-10-29T23:30:53.344Z,2.58
2022-10-29T23:35:55.991Z,2.30
2022-10-29T23:40:58.869Z,2.88
2022-10-29T23:46:01.957Z,2.60
2022-10-29T23:51:05.043Z,2.55
2022-10-29T23:56:08.274Z,2.90
